Glen Ellen, California
Current Conditions -  °F | °C
As of 5:55 PM on Thursday 18 Dec 2014 (Local Time) from KDVO Reporting Station
Overcast Overcast  
Wind Chill: 54°   Ceiling: 1600
Heat Index: 54°   Visibility: 10mi
Dew Point: 52°   Wind: 0mph
Humidity: 94%   Direction: NA
Pressure: 30.16"   Gusts: NA
Location:  38.36°N, 122.53°W
Report Text: KDVO 190155Z AUTO 00000KT 10SM OVC016 12/11 A3016 RMK AO2
Loading
Personal Weather Stations






























Interactive Weather Map New forecast layout! Learn more

10-Day Weather Forecast

Advertisements
Track Severe Weather on mobile